createdAt,value
2019-01-30T00:01:57.917Z,99645.87
2019-01-30T00:04:28.079Z,99646.23
2019-01-30T00:06:58.258Z,99640.05
2019-01-30T00:09:28.419Z,99653.90
2019-01-30T00:11:58.599Z,99654.86
2019-01-30T00:14:29.049Z,99655.88
2019-01-30T00:16:59.226Z,99656.55
2019-01-30T00:19:29.427Z,99647.91
2019-01-30T00:21:59.957Z,99659.34
2019-01-30T00:24:30.129Z,99664.98
2019-01-30T00:27:00.359Z,99670.55
2019-01-30T00:29:30.555Z,99670.16
2019-01-30T00:32:01.132Z,99667.21
2019-01-30T00:34:31.297Z,99662.61
2019-01-30T00:37:02.277Z,99669.95
2019-01-30T00:39:32.449Z,99671.30
2019-01-30T00:42:02.622Z,99668.03
2019-01-30T00:44:33.172Z,99666.90
2019-01-30T00:47:03.350Z,99665.73
2019-01-30T00:49:33.586Z,99649.90
2019-01-30T00:52:03.767Z,99667.35
2019-01-30T00:54:33.926Z,99662.88
2019-01-30T00:57:04.106Z,99667.23
2019-01-30T00:59:34.281Z,99669.45
2019-01-30T01:02:05.055Z,99670.42
2019-01-30T01:04:35.227Z,99666.14
2019-01-30T01:07:05.415Z,99669.17
2019-01-30T01:09:35.567Z,99669.66
2019-01-30T01:12:05.752Z,99662.79
2019-01-30T01:14:35.992Z,99655.64
2019-01-30T01:17:06.165Z,99658.63
2019-01-30T01:19:36.333Z,99663.11
2019-01-30T01:22:06.517Z,99656.11
2019-01-30T01:24:36.684Z,99661.53
2019-01-30T01:27:06.865Z,99658.83
2019-01-30T01:29:37.032Z,99655.31
2019-01-30T01:32:07.220Z,99659.52
2019-01-30T01:34:37.387Z,99656.00
2019-01-30T01:37:07.579Z,99655.56
2019-01-30T01:39:37.747Z,99658.22
2019-01-30T01:42:07.932Z,99660.33
2019-01-30T01:44:38.093Z,99652.92
2019-01-30T01:47:08.271Z,99656.32
2019-01-30T01:49:38.441Z,99646.30
2019-01-30T01:52:08.622Z,99638.22
2019-01-30T01:54:38.784Z,99627.88
2019-01-30T01:57:09.002Z,99625.42
2019-01-30T01:59:39.169Z,99634.47
2019-01-30T02:02:09.329Z,99620.73
2019-01-30T02:04:40.470Z,99624.00
2019-01-30T02:07:10.655Z,99625.63
2019-01-30T02:09:40.821Z,99624.73
2019-01-30T02:12:11.006Z,99629.79
2019-01-30T02:14:41.179Z,99633.47
2019-01-30T02:17:11.353Z,99628.30
2019-01-30T02:19:41.533Z,99625.71
2019-01-30T02:22:11.720Z,99618.92
2019-01-30T02:24:41.956Z,99620.34
2019-01-30T02:27:12.132Z,99616.94
2019-01-30T02:29:42.300Z,99618.23
2019-01-30T02:32:12.484Z,99623.73
2019-01-30T02:34:42.653Z,99624.54
2019-01-30T02:37:12.870Z,99624.33
2019-01-30T02:39:43.050Z,99622.50
2019-01-30T02:42:13.238Z,99622.26
2019-01-30T02:44:43.404Z,99626.38
2019-01-30T02:47:13.590Z,99630.58
2019-01-30T02:49:43.762Z,99628.78
2019-01-30T02:52:13.927Z,99631.20
2019-01-30T02:54:44.095Z,99633.97
2019-01-30T02:57:14.271Z,99637.65
2019-01-30T02:59:44.438Z,99640.84
2019-01-30T03:02:16.256Z,99636.06
2019-01-30T03:04:46.424Z,99637.80
2019-01-30T03:07:16.601Z,99638.23
2019-01-30T03:09:46.766Z,99641.41
2019-01-30T03:12:16.951Z,99635.67
2019-01-30T03:14:47.119Z,99635.28
2019-01-30T03:17:17.305Z,99631.58
2019-01-30T03:19:47.457Z,99633.05
2019-01-30T03:22:17.639Z,99629.86
2019-01-30T03:24:47.806Z,99631.22
2019-01-30T03:27:17.980Z,99635.67
2019-01-30T03:29:48.146Z,99628.70
2019-01-30T03:32:18.304Z,99624.91
2019-01-30T03:34:49.434Z,99607.84
2019-01-30T03:37:19.596Z,99628.52
2019-01-30T03:39:49.762Z,99625.42
2019-01-30T03:42:19.949Z,99627.68
2019-01-30T03:44:50.104Z,99620.92
2019-01-30T03:47:20.278Z,99629.09
2019-01-30T03:49:50.447Z,99637.75
2019-01-30T03:52:20.620Z,99640.44
2019-01-30T03:54:50.790Z,99644.72
2019-01-30T03:57:20.968Z,99637.64
2019-01-30T03:59:51.199Z,99627.97
2019-01-30T04:02:22.151Z,99630.19
2019-01-30T04:04:52.420Z,99631.91
2019-01-30T04:07:22.639Z,99624.81
2019-01-30T04:09:52.806Z,99619.44
2019-01-30T04:12:23.073Z,99627.22
2019-01-30T04:14:53.244Z,99631.55
2019-01-30T04:17:23.426Z,99631.55
2019-01-30T04:19:53.587Z,99628.39
2019-01-30T04:22:24.736Z,99631.97
2019-01-30T04:24:54.898Z,99636.58
2019-01-30T04:27:25.075Z,99613.88
2019-01-30T04:29:55.230Z,99632.03
2019-01-30T04:32:25.411Z,99631.36
2019-01-30T04:34:55.582Z,99637.75
2019-01-30T04:37:25.751Z,99636.23
2019-01-30T04:39:55.904Z,99642.00
2019-01-30T04:42:26.169Z,99640.34
2019-01-30T04:44:56.322Z,99642.23
2019-01-30T04:47:26.503Z,99646.69
2019-01-30T04:49:56.662Z,99653.25
2019-01-30T04:52:26.841Z,99650.30
2019-01-30T04:54:59.012Z,99647.84
2019-01-30T04:57:29.194Z,99647.84
2019-01-30T04:59:59.365Z,99642.27
2019-01-30T05:02:30.349Z,99645.95
2019-01-30T05:05:00.571Z,99644.73
2019-01-30T05:07:31.128Z,99652.76
2019-01-30T05:10:01.264Z,99647.91
2019-01-30T05:12:31.487Z,99654.05
2019-01-30T05:15:01.705Z,99642.60
2019-01-30T05:17:32.177Z,99655.88
2019-01-30T05:20:02.308Z,99653.48
2019-01-30T05:22:32.492Z,99656.23
2019-01-30T05:25:03.110Z,99649.13
2019-01-30T05:27:33.292Z,99650.09
2019-01-30T05:30:03.433Z,99640.30
2019-01-30T05:32:33.609Z,99649.90
2019-01-30T05:35:04.122Z,99648.52
2019-01-30T05:37:34.452Z,99650.43
2019-01-30T05:40:09.712Z,99643.23
2019-01-30T05:42:39.968Z,99646.09
2019-01-30T05:45:14.013Z,99649.20
2019-01-30T05:47:44.197Z,99651.98
2019-01-30T05:50:15.407Z,99655.95
2019-01-30T05:52:45.584Z,99632.48
2019-01-30T05:55:17.222Z,99651.58
2019-01-30T05:57:48.372Z,99651.58
2019-01-30T06:00:29.694Z,99650.78
2019-01-30T06:02:59.883Z,99653.90
2019-01-30T06:05:30.108Z,99657.70
2019-01-30T06:08:00.343Z,99651.77
2019-01-30T06:10:30.480Z,99651.77
2019-01-30T06:13:01.090Z,99659.39
2019-01-30T06:15:31.228Z,99661.01
2019-01-30T06:18:02.358Z,99661.70
2019-01-30T06:20:32.508Z,99663.67
2019-01-30T06:23:02.662Z,99662.53
2019-01-30T06:25:33.061Z,99665.87
2019-01-30T06:28:03.593Z,99666.36
2019-01-30T06:30:33.735Z,99670.44
2019-01-30T06:33:03.915Z,99675.25
2019-01-30T06:35:35.014Z,99674.48
2019-01-30T06:38:05.176Z,99673.63
2019-01-30T06:40:35.327Z,99676.55
2019-01-30T06:43:06.546Z,99658.19
2019-01-30T06:45:37.649Z,99676.80
2019-01-30T06:48:07.831Z,99683.06
2019-01-30T06:50:37.963Z,99678.23
2019-01-30T06:53:08.168Z,99682.06
2019-01-30T06:55:38.313Z,99665.27
2019-01-30T06:58:08.489Z,99670.43
2019-01-30T07:00:38.633Z,99667.69
2019-01-30T07:03:08.826Z,99670.95
2019-01-30T07:05:38.970Z,99673.60
2019-01-30T07:08:09.152Z,99676.23
2019-01-30T07:10:39.291Z,99671.16
2019-01-30T07:13:09.488Z,99671.58
2019-01-30T07:15:39.648Z,99672.94
2019-01-30T07:18:09.836Z,99673.76
2019-01-30T07:20:39.967Z,99673.76
2019-01-30T07:23:10.157Z,99674.72
2019-01-30T07:25:40.296Z,99688.57
2019-01-30T07:28:10.479Z,99676.39
2019-01-30T07:30:40.624Z,99678.77
2019-01-30T07:33:10.810Z,99684.58
2019-01-30T07:35:40.952Z,99663.22
2019-01-30T07:38:11.137Z,99678.98
2019-01-30T07:40:41.279Z,99688.08
2019-01-30T07:43:11.472Z,99689.05
2019-01-30T07:45:41.608Z,99665.50
2019-01-30T07:48:11.789Z,99665.50
2019-01-30T07:50:42.000Z,99686.98
2019-01-30T07:53:12.183Z,99686.70
2019-01-30T07:55:42.322Z,99690.37
2019-01-30T07:58:12.497Z,99692.16
2019-01-30T08:00:42.627Z,99693.32
2019-01-30T08:03:12.824Z,99695.02
2019-01-30T08:05:42.950Z,99695.43
2019-01-30T08:08:13.245Z,99703.79
2019-01-30T08:10:43.387Z,99706.70
2019-01-30T08:13:13.653Z,99702.70
2019-01-30T08:15:43.792Z,99709.44
2019-01-30T08:18:13.967Z,99715.62
2019-01-30T08:20:44.092Z,99708.91
2019-01-30T08:23:14.508Z,99708.17
2019-01-30T08:25:44.893Z,99710.07
2019-01-30T08:28:15.927Z,99715.73
2019-01-30T08:30:46.592Z,99712.78
2019-01-30T08:33:17.082Z,99719.00
2019-01-30T08:35:47.198Z,99723.29
2019-01-30T08:38:17.368Z,99721.39
2019-01-30T08:40:47.502Z,99722.73
2019-01-30T08:43:17.772Z,99719.13
2019-01-30T08:45:47.898Z,99724.54
2019-01-30T08:48:18.084Z,99724.62
2019-01-30T08:50:48.223Z,99726.31
2019-01-30T08:53:18.401Z,99730.96
2019-01-30T08:55:49.553Z,99726.03
2019-01-30T08:58:19.779Z,99725.30
2019-01-30T09:00:49.961Z,99727.28
2019-01-30T09:03:20.309Z,99726.60
2019-01-30T09:05:50.431Z,99732.45
2019-01-30T09:08:20.608Z,99726.99
2019-01-30T09:10:50.743Z,99718.61
2019-01-30T09:13:21.006Z,99724.09
2019-01-30T09:15:51.131Z,99716.45
2019-01-30T09:18:21.306Z,99722.63
2019-01-30T09:20:51.428Z,99720.59
2019-01-30T09:23:21.609Z,99696.11
2019-01-30T09:25:51.740Z,99715.66
2019-01-30T09:28:21.924Z,99719.73
2019-01-30T09:30:52.053Z,99716.39
2019-01-30T09:33:26.000Z,99720.58
2019-01-30T09:35:54.071Z,99723.69
2019-01-30T09:38:24.245Z,99717.36
2019-01-30T09:40:54.381Z,99724.36
2019-01-30T09:43:24.573Z,99730.31
2019-01-30T09:45:54.692Z,99722.17
2019-01-30T09:48:24.854Z,99720.62
2019-01-30T09:50:54.981Z,99719.44
2019-01-30T09:53:25.166Z,99721.73
2019-01-30T09:55:55.297Z,99723.98
2019-01-30T09:58:25.478Z,99714.03
2019-01-30T10:00:55.620Z,99713.62
2019-01-30T10:03:35.818Z,99712.44
2019-01-30T10:05:57.664Z,99714.02
2019-01-30T10:08:27.885Z,99714.13
2019-01-30T10:10:58.027Z,99705.02
2019-01-30T10:13:28.205Z,99705.13
2019-01-30T10:15:58.334Z,99707.89
2019-01-30T10:18:28.522Z,99708.66
2019-01-30T10:20:59.865Z,99705.53
2019-01-30T10:23:30.039Z,99707.75
2019-01-30T10:26:00.172Z,99707.48
2019-01-30T10:28:30.346Z,99697.24
2019-01-30T10:31:00.483Z,99702.56
2019-01-30T10:33:31.054Z,99708.23
2019-01-30T10:36:01.181Z,99709.52
2019-01-30T10:38:31.394Z,99705.27
2019-01-30T10:41:01.521Z,99703.48
2019-01-30T10:43:32.278Z,99701.13
2019-01-30T10:46:02.412Z,99697.41
2019-01-30T10:48:32.630Z,99697.98
2019-01-30T10:51:03.072Z,99691.27
2019-01-30T10:53:33.249Z,99691.30
2019-01-30T10:56:03.455Z,99689.28
2019-01-30T10:58:33.627Z,99691.12
2019-01-30T11:01:03.753Z,99689.13
2019-01-30T11:03:33.938Z,99694.14
2019-01-30T11:06:04.122Z,99688.22
2019-01-30T11:08:34.596Z,99687.02
2019-01-30T11:11:08.024Z,99689.20
2019-01-30T11:13:36.745Z,99687.91
2019-01-30T11:16:06.874Z,99682.31
2019-01-30T11:18:37.053Z,99680.28
2019-01-30T11:21:07.182Z,99679.63
2019-01-30T11:23:37.369Z,99668.13
2019-01-30T11:26:07.503Z,99673.07
2019-01-30T11:28:37.693Z,99663.16
2019-01-30T11:31:07.830Z,99667.47
2019-01-30T11:33:38.001Z,99656.68
2019-01-30T11:36:08.116Z,99664.21
2019-01-30T11:38:38.323Z,99656.11
2019-01-30T11:41:08.451Z,99661.39
2019-01-30T11:43:38.644Z,99655.94
2019-01-30T11:46:08.760Z,99650.75
2019-01-30T11:48:38.930Z,99653.82
2019-01-30T11:51:09.051Z,99653.60
2019-01-30T11:53:39.214Z,99657.23
2019-01-30T11:56:09.337Z,99651.98
2019-01-30T11:58:39.513Z,99649.06
2019-01-30T12:01:09.645Z,99648.98
2019-01-30T12:03:39.824Z,99641.98
2019-01-30T12:06:09.957Z,99649.65
2019-01-30T12:08:40.162Z,99654.08
2019-01-30T12:11:10.289Z,99650.69
2019-01-30T12:13:40.479Z,99649.63
2019-01-30T12:16:10.624Z,99647.34
2019-01-30T12:18:40.798Z,99645.63
2019-01-30T12:21:10.929Z,99643.77
2019-01-30T12:23:41.108Z,99652.86
2019-01-30T12:26:11.237Z,99655.84
2019-01-30T12:28:41.420Z,99654.48
2019-01-30T12:31:11.556Z,99655.20
2019-01-30T12:33:41.727Z,99652.38
2019-01-30T12:36:11.852Z,99651.45
2019-01-30T12:38:42.172Z,99654.99
2019-01-30T12:41:12.391Z,99650.65
2019-01-30T12:43:45.232Z,99645.87
2019-01-30T12:46:14.440Z,99642.23
2019-01-30T12:48:44.612Z,99641.67
2019-01-30T12:51:14.741Z,99640.44
2019-01-30T12:53:44.927Z,99641.83
2019-01-30T12:56:15.062Z,99635.56
2019-01-30T12:58:45.277Z,99633.84
2019-01-30T13:01:15.440Z,99629.47
2019-01-30T13:03:45.622Z,99621.68
2019-01-30T13:06:15.754Z,99623.78
2019-01-30T13:08:45.965Z,99619.25
2019-01-30T13:11:16.091Z,99614.05
2019-01-30T13:13:46.279Z,99621.08
2019-01-30T13:16:16.407Z,99613.85
2019-01-30T13:18:46.581Z,99613.70
2019-01-30T13:21:16.717Z,99616.77
2019-01-30T13:23:46.893Z,99608.77
2019-01-30T13:26:17.027Z,99611.63
2019-01-30T13:28:47.207Z,99608.61
2019-01-30T13:31:17.339Z,99608.09
2019-01-30T13:33:47.523Z,99610.14
2019-01-30T13:36:18.626Z,99608.06
2019-01-30T13:38:48.838Z,99608.71
2019-01-30T13:41:18.965Z,99616.57
2019-01-30T13:43:49.217Z,99617.03
2019-01-30T13:46:19.348Z,99619.67
2019-01-30T13:48:49.558Z,99618.45
2019-01-30T13:51:19.740Z,99619.94
2019-01-30T13:53:50.075Z,99624.31
2019-01-30T13:56:20.233Z,99625.92
2019-01-30T13:58:50.457Z,99629.13
2019-01-30T14:01:20.677Z,99630.52
2019-01-30T14:03:50.861Z,99638.39
2019-01-30T14:06:21.002Z,99636.28
2019-01-30T14:08:51.155Z,99639.02
2019-01-30T14:11:21.293Z,99636.19
2019-01-30T14:13:52.524Z,99638.57
2019-01-30T14:16:22.661Z,99628.72
2019-01-30T14:18:52.837Z,99624.62
2019-01-30T14:21:22.995Z,99621.55
2019-01-30T14:23:53.155Z,99618.48
2019-01-30T14:26:23.289Z,99611.55
2019-01-30T14:28:53.507Z,99611.59
2019-01-30T14:31:23.692Z,99615.64
2019-01-30T14:33:53.884Z,99617.94
2019-01-30T14:36:24.183Z,99614.32
2019-01-30T14:38:54.337Z,99620.42
2019-01-30T14:41:24.501Z,99617.83
2019-01-30T14:43:54.705Z,99616.08
2019-01-30T14:46:24.882Z,99611.84
2019-01-30T14:48:55.057Z,99620.92
2019-01-30T14:51:25.188Z,99614.85
2019-01-30T14:53:55.400Z,99615.98
2019-01-30T14:56:25.573Z,99619.09
2019-01-30T14:58:55.753Z,99622.47
2019-01-30T15:01:25.883Z,99627.85
2019-01-30T15:03:56.053Z,99620.53
2019-01-30T15:06:26.186Z,99621.56
2019-01-30T15:08:56.436Z,99630.20
2019-01-30T15:11:26.603Z,99628.59
2019-01-30T15:13:56.945Z,99623.35
2019-01-30T15:16:27.126Z,99621.17
2019-01-30T15:18:57.311Z,99621.58
2019-01-30T15:21:27.559Z,99625.60
2019-01-30T15:23:57.826Z,99627.48
2019-01-30T15:26:27.959Z,99629.52
2019-01-30T15:28:58.142Z,99627.58
2019-01-30T15:31:28.281Z,99627.20
2019-01-30T15:33:58.458Z,99628.78
2019-01-30T15:36:28.601Z,99632.16
2019-01-30T15:38:58.978Z,99632.16
2019-01-30T15:41:29.230Z,99636.94
2019-01-30T15:43:59.564Z,99626.39
2019-01-30T15:46:29.846Z,99622.52
2019-01-30T15:49:00.021Z,99621.72
2019-01-30T15:51:30.164Z,99616.47
2019-01-30T15:54:00.421Z,99614.98
2019-01-30T15:56:30.567Z,99619.42
2019-01-30T15:59:01.043Z,99612.95
2019-01-30T16:01:31.182Z,99623.30
2019-01-30T16:04:05.989Z,99601.98
2019-01-30T16:06:34.004Z,99601.98
2019-01-30T16:09:06.068Z,99616.63
2019-01-30T16:11:36.285Z,99616.02
2019-01-30T16:14:06.479Z,99616.02
2019-01-30T16:16:37.588Z,99626.56
2019-01-30T16:19:07.776Z,99617.75
2019-01-30T16:21:37.909Z,99619.05
2019-01-30T16:24:08.076Z,99613.72
2019-01-30T16:26:38.217Z,99609.03
2019-01-30T16:29:08.397Z,99624.89
2019-01-30T16:31:39.507Z,99621.53
2019-01-30T16:34:09.682Z,99621.53
2019-01-30T16:36:39.813Z,99607.06
2019-01-30T16:39:09.992Z,99626.09
2019-01-30T16:41:40.130Z,99618.83
2019-01-30T16:44:10.426Z,99621.61
2019-01-30T16:46:40.552Z,99613.33
2019-01-30T16:49:10.742Z,99601.37
2019-01-30T16:51:40.884Z,99612.84
2019-01-30T16:54:13.361Z,99607.14
2019-01-30T16:56:43.517Z,99604.13
2019-01-30T16:59:13.695Z,99605.86
2019-01-30T17:01:43.871Z,99616.50
2019-01-30T17:04:14.059Z,99619.77
2019-01-30T17:06:44.223Z,99625.41
2019-01-30T17:09:14.403Z,99622.27
2019-01-30T17:11:44.576Z,99622.66
2019-01-30T17:14:14.847Z,99621.73
2019-01-30T17:16:45.030Z,99621.20
2019-01-30T17:19:15.214Z,99620.09
2019-01-30T17:21:45.373Z,99629.66
2019-01-30T17:24:15.563Z,99625.66
2019-01-30T17:26:45.728Z,99628.52
2019-01-30T17:29:15.907Z,99613.13
2019-01-30T17:31:46.087Z,99627.27
2019-01-30T17:34:16.272Z,99629.53
2019-01-30T17:36:46.448Z,99628.56
2019-01-30T17:39:16.637Z,99631.31
2019-01-30T17:41:46.793Z,99638.16
2019-01-30T17:44:16.982Z,99625.36
2019-01-30T17:46:47.198Z,99643.31
2019-01-30T17:49:19.192Z,99643.31
2019-01-30T17:51:51.038Z,99629.80
2019-01-30T17:54:21.212Z,99620.37
2019-01-30T17:56:51.394Z,99615.05
2019-01-30T17:59:21.581Z,99624.58
2019-01-30T18:01:51.812Z,99624.50
2019-01-30T18:04:21.994Z,99618.23
2019-01-30T18:06:52.169Z,99610.28
2019-01-30T18:09:22.351Z,99627.08
2019-01-30T18:11:52.499Z,99627.08
2019-01-30T18:14:22.736Z,99632.55
2019-01-30T18:16:52.923Z,99628.72
2019-01-30T18:19:23.317Z,99622.75
2019-01-30T18:21:53.953Z,99632.69
2019-01-30T18:24:24.521Z,99613.44
2019-01-30T18:26:55.061Z,99613.44
2019-01-30T18:29:25.618Z,99627.25
2019-01-30T18:31:56.130Z,99608.00
2019-01-30T18:34:26.703Z,99623.63
2019-01-30T18:36:57.189Z,99620.52
2019-01-30T18:39:27.421Z,99619.31
2019-01-30T18:41:57.903Z,99620.60
2019-01-30T18:44:28.213Z,99615.84
2019-01-30T18:46:59.519Z,99610.67
2019-01-30T18:49:30.174Z,99615.44
2019-01-30T18:52:00.462Z,99620.60
2019-01-30T18:54:31.154Z,99615.89
2019-01-30T18:57:02.292Z,99617.18
2019-01-30T18:59:33.018Z,99606.59
2019-01-30T19:02:04.770Z,99615.03
2019-01-30T19:04:34.970Z,99606.60
2019-01-30T19:07:05.139Z,99621.02
2019-01-30T19:09:35.316Z,99620.41
2019-01-30T19:12:05.459Z,99622.98
2019-01-30T19:14:35.644Z,99622.42
2019-01-30T19:17:07.404Z,99604.27
2019-01-30T19:19:37.593Z,99618.44
2019-01-30T19:22:10.187Z,99621.19
2019-01-30T19:24:39.699Z,99616.86
2019-01-30T19:27:09.845Z,99616.86
2019-01-30T19:29:40.032Z,99618.61
2019-01-30T19:32:10.180Z,99618.56
2019-01-30T19:34:40.368Z,99616.10
2019-01-30T19:37:10.509Z,99616.59
2019-01-30T19:39:40.701Z,99602.73
2019-01-30T19:42:10.854Z,99602.73
2019-01-30T19:44:41.043Z,99613.52
2019-01-30T19:47:11.459Z,99623.93
2019-01-30T19:49:41.928Z,99624.05
2019-01-30T19:52:12.287Z,99620.59
2019-01-30T19:54:42.795Z,99618.00
2019-01-30T19:57:13.012Z,99599.23
2019-01-30T19:59:43.298Z,99615.22
2019-01-30T20:02:13.827Z,99608.91
2019-01-30T20:04:45.389Z,99600.00
2019-01-30T20:07:15.841Z,99615.98
2019-01-30T20:09:46.338Z,99620.27
2019-01-30T20:12:16.742Z,99618.89
2019-01-30T20:14:47.263Z,99615.98
2019-01-30T20:17:17.478Z,99615.98
2019-01-30T20:19:47.733Z,99612.59
2019-01-30T20:22:17.876Z,99612.59
2019-01-30T20:24:48.062Z,99622.36
2019-01-30T20:27:18.192Z,99615.49
2019-01-30T20:29:48.478Z,99619.97
2019-01-30T20:32:18.610Z,99623.85
2019-01-30T20:34:48.806Z,99618.61
2019-01-30T20:37:25.950Z,99618.61
2019-01-30T20:39:50.894Z,99606.81
2019-01-30T20:42:21.085Z,99608.55
2019-01-30T20:44:51.296Z,99613.72
2019-01-30T20:47:21.805Z,99613.72
2019-01-30T20:49:53.133Z,99618.28
2019-01-30T20:52:23.273Z,99617.52
2019-01-30T20:54:59.923Z,99615.62
2019-01-30T20:57:27.450Z,99605.24
2019-01-30T20:59:58.192Z,99605.24
2019-01-30T21:02:30.110Z,99620.71
2019-01-30T21:05:31.452Z,99619.17
2019-01-30T21:06:36.621Z,99624.94
2019-01-30T21:07:41.779Z,99624.54
2019-01-30T21:08:46.955Z,99624.14
2019-01-30T21:09:52.126Z,99626.72
2019-01-30T21:10:57.280Z,99622.84
2019-01-30T21:12:02.420Z,99622.00
2019-01-30T21:13:07.964Z,99621.27
2019-01-30T21:14:14.115Z,99623.05
2019-01-30T21:15:20.383Z,99611.47
2019-01-30T21:16:25.553Z,99617.52
2019-01-30T21:17:30.875Z,99615.95
2019-01-30T21:18:33.265Z,99617.52
2019-01-30T21:19:36.371Z,99612.68
2019-01-30T21:20:37.564Z,99614.45
2019-01-30T21:21:40.671Z,99615.27
2019-01-30T21:22:41.836Z,99620.11
2019-01-30T21:23:44.065Z,99619.75
2019-01-30T21:24:45.211Z,99619.63
2019-01-30T21:25:46.540Z,99617.84
2019-01-30T21:26:47.814Z,99615.75
2019-01-30T21:27:49.008Z,99612.23
2019-01-30T21:28:50.189Z,99615.27
2019-01-30T21:29:51.377Z,99610.09
2019-01-30T21:30:52.674Z,99618.89
2019-01-30T21:32:11.335Z,99593.38
2019-01-30T21:32:42.590Z,99593.38
2019-01-30T21:33:13.833Z,99607.59
2019-01-30T21:33:45.098Z,99613.64
2019-01-30T21:34:17.529Z,99611.99
2019-01-30T21:34:48.890Z,99613.77
2019-01-30T21:35:20.224Z,99613.44
2019-01-30T21:35:53.000Z,99609.61
2019-01-30T21:36:24.231Z,99610.45
2019-01-30T21:36:55.481Z,99612.16
2019-01-30T21:37:26.731Z,99612.16
2019-01-30T21:37:57.992Z,99608.72
2019-01-30T21:38:29.511Z,99604.03
2019-01-30T21:39:00.772Z,99604.84
2019-01-30T21:39:32.675Z,99604.52
2019-01-30T21:40:12.420Z,99605.89
2019-01-30T21:40:43.661Z,99604.64
2019-01-30T21:41:14.896Z,99608.11
2019-01-30T21:41:46.056Z,99588.29
2019-01-30T21:42:17.260Z,99605.05
2019-01-30T21:42:48.415Z,99605.05
2019-01-30T21:43:19.610Z,99604.64
2019-01-30T21:43:50.794Z,99608.92
2019-01-30T21:44:21.975Z,99607.22
2019-01-30T21:44:53.259Z,99607.70
2019-01-30T21:45:25.147Z,99605.05
2019-01-30T21:45:56.298Z,99605.05
2019-01-30T21:46:27.495Z,99607.10
2019-01-30T21:47:01.417Z,99601.86
2019-01-30T21:47:32.358Z,99601.86
2019-01-30T21:48:03.647Z,99580.74
2019-01-30T21:48:34.835Z,99602.34
2019-01-30T21:49:06.030Z,99605.73
2019-01-30T21:49:38.315Z,99605.73
2019-01-30T21:50:09.596Z,99602.74
2019-01-30T21:50:40.795Z,99602.27
2019-01-30T21:51:11.994Z,99608.31
2019-01-30T21:51:43.199Z,99600.52
2019-01-30T21:52:14.380Z,99599.63
2019-01-30T21:52:45.582Z,99599.63
2019-01-30T21:53:16.772Z,99603.55
2019-01-30T21:53:47.958Z,99601.45
2019-01-30T21:54:19.147Z,99601.05
2019-01-30T21:54:50.438Z,99601.12
2019-01-30T21:55:23.515Z,99595.95
2019-01-30T21:55:54.708Z,99588.13
2019-01-30T21:56:25.891Z,99588.13
2019-01-30T21:56:57.091Z,99599.75
2019-01-30T21:57:28.277Z,99602.27
2019-01-30T21:57:59.470Z,99598.87
2019-01-30T21:58:30.653Z,99598.87
2019-01-30T21:59:02.353Z,99602.27
2019-01-30T21:59:33.670Z,99595.14
2019-01-30T22:00:13.052Z,99593.89
2019-01-30T22:00:44.207Z,99593.89
2019-01-30T22:01:15.391Z,99594.45
2019-01-30T22:01:46.575Z,99572.91
2019-01-30T22:02:17.821Z,99572.91
2019-01-30T22:02:48.995Z,99592.40
2019-01-30T22:03:20.192Z,99599.75
2019-01-30T22:03:51.368Z,99593.69
2019-01-30T22:04:22.549Z,99589.33
2019-01-30T22:04:53.749Z,99596.20
2019-01-30T22:05:25.045Z,99596.20
2019-01-30T22:05:56.295Z,99584.45
2019-01-30T22:06:27.559Z,99589.69
2019-01-30T22:06:59.239Z,99589.61
2019-01-30T22:07:30.506Z,99596.88
2019-01-30T22:08:01.949Z,99594.78
2019-01-30T22:08:35.823Z,99588.80
2019-01-30T22:09:06.242Z,99590.42
2019-01-30T22:09:37.452Z,99588.73
2019-01-30T22:10:13.210Z,99585.26
2019-01-30T22:10:44.425Z,99590.91
2019-01-30T22:11:15.597Z,99589.20
2019-01-30T22:11:46.814Z,99595.67
2019-01-30T22:12:17.975Z,99588.80
2019-01-30T22:12:49.239Z,99590.09
2019-01-30T22:13:20.492Z,99590.09
2019-01-30T22:13:51.756Z,99585.86
2019-01-30T22:14:22.949Z,99585.86
2019-01-30T22:14:54.154Z,99588.52
2019-01-30T22:15:25.297Z,99588.11
2019-01-30T22:15:56.544Z,99572.30
2019-01-30T22:16:27.704Z,99585.86
2019-01-30T22:16:59.151Z,99584.16
2019-01-30T22:17:30.304Z,99584.16
2019-01-30T22:18:01.801Z,99583.75
2019-01-30T22:18:32.972Z,99581.69
2019-01-30T22:19:04.169Z,99585.57
2019-01-30T22:19:35.322Z,99577.22
2019-01-30T22:20:19.570Z,99577.22
2019-01-30T22:20:50.720Z,99559.58
2019-01-30T22:21:21.928Z,99581.53
2019-01-30T22:21:53.081Z,99581.94
2019-01-30T22:22:24.302Z,99581.94
2019-01-30T22:22:55.516Z,99577.50
2019-01-30T22:23:26.760Z,99575.33
2019-01-30T22:24:05.343Z,99576.21
2019-01-30T22:24:31.148Z,99576.21
2019-01-30T22:25:06.186Z,99574.47
2019-01-30T22:25:37.428Z,99572.70
2019-01-30T22:26:08.687Z,99567.85
2019-01-30T22:26:39.922Z,99581.34
2019-01-30T22:27:11.180Z,99575.33
2019-01-30T22:27:42.719Z,99573.98
2019-01-30T22:28:13.939Z,99573.58
2019-01-30T22:28:45.091Z,99572.70
2019-01-30T22:29:16.303Z,99575.77
2019-01-30T22:29:47.510Z,99563.98
2019-01-30T22:30:24.417Z,99572.33
2019-01-30T22:30:55.584Z,99569.30
2019-01-30T22:31:26.817Z,99569.30
2019-01-30T22:31:57.999Z,99570.59
2019-01-30T22:32:29.411Z,99570.59
2019-01-30T22:33:00.706Z,99571.93
2019-01-30T22:33:31.928Z,99577.98
2019-01-30T22:34:03.146Z,99577.98
2019-01-30T22:34:34.299Z,99572.41
2019-01-30T22:35:08.311Z,99581.05
2019-01-30T22:35:39.457Z,99581.05
2019-01-30T22:36:10.663Z,99571.93
2019-01-30T22:36:41.822Z,99581.94
2019-01-30T22:37:13.032Z,99579.80
2019-01-30T22:37:44.201Z,99575.88
2019-01-30T22:38:15.412Z,99575.88
2019-01-30T22:38:46.558Z,99574.19
2019-01-30T22:39:17.770Z,99578.06
2019-01-30T22:39:48.908Z,99560.10
2019-01-30T22:40:20.118Z,99581.17
2019-01-30T22:40:51.270Z,99574.23
2019-01-30T22:41:22.492Z,99569.91
2019-01-30T22:41:53.652Z,99577.70
2019-01-30T22:42:24.850Z,99581.98
2019-01-30T22:42:56.017Z,99576.77
2019-01-30T22:43:27.240Z,99581.53
2019-01-30T22:43:58.738Z,99573.70
2019-01-30T22:44:29.916Z,99573.70
2019-01-30T22:45:01.157Z,99575.80
2019-01-30T22:45:32.353Z,99581.05
2019-01-30T22:46:03.543Z,99581.05
2019-01-30T22:46:34.717Z,99578.95
2019-01-30T22:47:05.885Z,99569.30
2019-01-30T22:47:38.077Z,99554.33
2019-01-30T22:48:09.267Z,99577.58
2019-01-30T22:48:40.456Z,99575.07
2019-01-30T22:49:11.641Z,99575.07
2019-01-30T22:49:42.819Z,99572.13
2019-01-30T22:50:16.081Z,99578.59
2019-01-30T22:50:48.262Z,99569.91
2019-01-30T22:51:19.434Z,99576.48
2019-01-30T22:51:50.634Z,99569.61
2019-01-30T22:52:21.822Z,99569.61
2019-01-30T22:52:53.026Z,99573.09
2019-01-30T22:53:24.245Z,99566.67
2019-01-30T22:53:56.416Z,99571.03
2019-01-30T22:54:27.638Z,99569.73
2019-01-30T22:54:59.114Z,99569.73
2019-01-30T22:55:31.794Z,99570.55
2019-01-30T22:56:03.363Z,99568.52
2019-01-30T22:56:34.662Z,99568.52
2019-01-30T22:57:05.859Z,99573.33
2019-01-30T22:57:37.075Z,99579.38
2019-01-30T22:58:08.239Z,99570.81
2019-01-30T22:58:39.535Z,99570.81
2019-01-30T22:59:10.699Z,99566.86
2019-01-30T22:59:41.926Z,99570.33
2019-01-30T23:00:29.512Z,99570.33
2019-01-30T23:01:16.572Z,99555.92
2019-01-30T23:01:47.925Z,99571.81
2019-01-30T23:02:19.244Z,99571.81
2019-01-30T23:02:50.406Z,99564.88
2019-01-30T23:03:39.084Z,99559.06
2019-01-30T23:04:30.655Z,99567.13
2019-01-30T23:05:25.656Z,99575.41
2019-01-30T23:06:32.164Z,99575.41